sensor_id;sensor_type;location;lat;lon;timestamp;pressure;altitude;pressure_sealevel;temperature;humidity
58955;BME280;45815;52.334;5.024;2023-07-31T00:01:18;100961.88;;;17.28;100.00
58955;BME280;45815;52.334;5.024;2023-07-31T00:03:45;100955.63;;;17.35;100.00
58955;BME280;45815;52.334;5.024;2023-07-31T00:06:10;100956.44;;;17.42;100.00
58955;BME280;45815;52.334;5.024;2023-07-31T00:08:36;100947.59;;;17.44;100.00
58955;BME280;45815;52.334;5.024;2023-07-31T00:11:01;100946.66;;;17.48;100.00
58955;BME280;45815;52.334;5.024;2023-07-31T00:13:26;100950.22;;;17.47;100.00
58955;BME280;45815;52.334;5.024;2023-07-31T00:15:52;100941.38;;;17.47;100.00
58955;BME280;45815;52.334;5.024;2023-07-31T00:18:17;100949.31;;;17.51;100.00
58955;BME280;45815;52.334;5.024;2023-07-31T00:20:43;100947.53;;;17.52;100.00
58955;BME280;45815;52.334;5.024;2023-07-31T00:23:08;100947.50;;;17.55;100.00
58955;BME280;45815;52.334;5.024;2023-07-31T00:25:33;100944.81;;;17.60;100.00
58955;BME280;45815;52.334;5.024;2023-07-31T00:27:59;100939.50;;;17.58;100.00
58955;BME280;45815;52.334;5.024;2023-07-31T00:30:25;100939.53;;;17.57;100.00
58955;BME280;45815;52.334;5.024;2023-07-31T00:32:53;100932.44;;;17.59;100.00
58955;BME280;45815;52.334;5.024;2023-07-31T00:35:18;100935.97;;;17.61;100.00
58955;BME280;45815;52.334;5.024;2023-07-31T00:37:43;100934.16;;;17.63;100.00
58955;BME280;45815;52.334;5.024;2023-07-31T00:40:09;100916.53;;;17.57;100.00
58955;BME280;45815;52.334;5.024;2023-07-31T00:42:34;100937.69;;;17.65;100.00
58955;BME280;45815;52.334;5.024;2023-07-31T00:45:00;100924.44;;;17.62;100.00
58955;BME280;45815;52.334;5.024;2023-07-31T00:47:26;100932.41;;;17.62;100.00
58955;BME280;45815;52.334;5.024;2023-07-31T00:49:52;100925.34;;;17.61;100.00
58955;BME280;45815;52.334;5.024;2023-07-31T00:52:19;100928.84;;;17.66;100.00
58955;BME280;45815;52.334;5.024;2023-07-31T00:54:44;100922.63;;;17.67;100.00
58955;BME280;45815;52.334;5.024;2023-07-31T00:57:10;100919.06;;;17.69;100.00
58955;BME280;45815;52.334;5.024;2023-07-31T00:59:35;100925.28;;;17.67;100.00
58955;BME280;45815;52.334;5.024;2023-07-31T01:02:02;100917.28;;;17.71;100.00
58955;BME280;45815;52.334;5.024;2023-07-31T01:04:28;100924.38;;;17.72;100.00
58955;BME280;45815;52.334;5.024;2023-07-31T01:12:09;100926.19;;;17.66;100.00
58955;BME280;45815;52.334;5.024;2023-07-31T01:14:38;100924.50;;;17.59;100.00
58955;BME280;45815;52.334;5.024;2023-07-31T01:17:03;100920.09;;;17.55;100.00
58955;BME280;45815;52.334;5.024;2023-07-31T01:19:29;100920.97;;;17.57;100.00
58955;BME280;45815;52.334;5.024;2023-07-31T01:22:08;100906.75;;;17.62;100.00
58955;BME280;45815;52.334;5.024;2023-07-31T01:27:34;100903.28;;;17.51;100.00
58955;BME280;45815;52.334;5.024;2023-07-31T01:30:11;100915.72;;;17.49;100.00
58955;BME280;45815;52.334;5.024;2023-07-31T01:32:42;100908.59;;;17.51;100.00
58955;BME280;45815;52.334;5.024;2023-07-31T01:35:09;100907.72;;;17.52;100.00
58955;BME280;45815;52.334;5.024;2023-07-31T01:37:35;100905.06;;;17.52;100.00
58955;BME280;45815;52.334;5.024;2023-07-31T01:40:01;100913.06;;;17.49;100.00
58955;BME280;45815;52.334;5.024;2023-07-31T01:42:26;100910.38;;;17.54;100.00
58955;BME280;45815;52.334;5.024;2023-07-31T01:44:52;100913.09;;;17.44;100.00
58955;BME280;45815;52.334;5.024;2023-07-31T01:47:18;100899.81;;;17.47;100.00
58955;BME280;45815;52.334;5.024;2023-07-31T01:49:44;100902.41;;;17.50;100.00
58955;BME280;45815;52.334;5.024;2023-07-31T01:52:09;100896.22;;;17.53;100.00
58955;BME280;45815;52.334;5.024;2023-07-31T01:54:35;100895.34;;;17.52;100.00
58955;BME280;45815;52.334;5.024;2023-07-31T01:57:02;100884.72;;;17.52;100.00
58955;BME280;45815;52.334;5.024;2023-07-31T01:59:28;100895.41;;;17.43;100.00
58955;BME280;45815;52.334;5.024;2023-07-31T02:01:54;100881.22;;;17.47;100.00
58955;BME280;45815;52.334;5.024;2023-07-31T02:04:19;100890.97;;;17.45;100.00
58955;BME280;45815;52.334;5.024;2023-07-31T02:06:45;100884.75;;;17.49;100.00
58955;BME280;45815;52.334;5.024;2023-07-31T02:09:10;100888.28;;;17.48;100.00
58955;BME280;45815;52.334;5.024;2023-07-31T02:11:35;100884.75;;;17.49;100.00
58955;BME280;45815;52.334;5.024;2023-07-31T02:14:01;100875.00;;;17.51;100.00
58955;BME280;45815;52.334;5.024;2023-07-31T02:16:26;100874.13;;;17.49;100.00
58955;BME280;45815;52.334;5.024;2023-07-31T02:18:52;100871.44;;;17.54;100.00
58955;BME280;45815;52.334;5.024;2023-07-31T02:21:17;100867.88;;;17.57;100.00
58955;BME280;45815;52.334;5.024;2023-07-31T02:23:43;100879.44;;;17.49;100.00
58955;BME280;45815;52.334;5.024;2023-07-31T02:26:08;100874.19;;;17.43;100.00
58955;BME280;45815;52.334;5.024;2023-07-31T02:28:34;100877.72;;;17.45;100.00
58955;BME280;45815;52.334;5.024;2023-07-31T02:30:59;100882.13;;;17.45;100.00
58955;BME280;45815;52.334;5.024;2023-07-31T02:33:24;100873.31;;;17.44;100.00
58955;BME280;45815;52.334;5.024;2023-07-31T02:35:50;100872.34;;;17.48;100.00
58955;BME280;45815;52.334;5.024;2023-07-31T02:38:16;100874.13;;;17.49;100.00
58955;BME280;45815;52.334;5.024;2023-07-31T02:40:42;100861.81;;;17.42;100.00
58955;BME280;45815;52.334;5.024;2023-07-31T02:43:08;100868.00;;;17.43;100.00
58955;BME280;45815;52.334;5.024;2023-07-31T02:45:33;100852.13;;;17.37;100.00
58955;BME280;45815;52.334;5.024;2023-07-31T02:47:59;100860.03;;;17.43;100.00
58955;BME280;45815;52.334;5.024;2023-07-31T02:50:24;100852.13;;;17.40;100.00
58955;BME280;45815;52.334;5.024;2023-07-31T02:52:50;100862.69;;;17.41;100.00
58955;BME280;45815;52.334;5.024;2023-07-31T02:55:15;100858.25;;;17.42;100.00
58955;BME280;45815;52.334;5.024;2023-07-31T02:57:41;100846.78;;;17.43;100.00
58955;BME280;45815;52.334;5.024;2023-07-31T03:00:06;100852.06;;;17.44;100.00
58955;BME280;45815;52.334;5.024;2023-07-31T03:02:32;100842.41;;;17.37;100.00
58955;BME280;45815;52.334;5.024;2023-07-31T03:04:58;100848.50;;;17.45;100.00
58955;BME280;45815;52.334;5.024;2023-07-31T03:07:23;100838.78;;;17.47;100.00
58955;BME280;45815;52.334;5.024;2023-07-31T03:09:49;100836.16;;;17.43;100.00
58955;BME280;45815;52.334;5.024;2023-07-31T03:12:14;100845.84;;;17.45;100.00
58955;BME280;45815;52.334;5.024;2023-07-31T03:14:40;100837.94;;;17.42;100.00
58955;BME280;45815;52.334;5.024;2023-07-31T03:17:05;100837.03;;;17.43;100.00
58955;BME280;45815;52.334;5.024;2023-07-31T03:19:32;100822.06;;;17.35;100.00
58955;BME280;45815;52.334;5.024;2023-07-31T03:21:58;100842.34;;;17.42;100.00
58955;BME280;45815;52.334;5.024;2023-07-31T03:24:23;100836.16;;;17.43;100.00
58955;BME280;45815;52.334;5.024;2023-07-31T03:26:49;100834.38;;;17.43;100.00
58955;BME280;45815;52.334;5.024;2023-07-31T03:29:14;100837.03;;;17.43;100.00
58955;BME280;45815;52.334;5.024;2023-07-31T03:31:40;100832.59;;;17.47;100.00
58955;BME280;45815;52.334;5.024;2023-07-31T03:34:05;100829.03;;;17.46;100.00
58955;BME280;45815;52.334;5.024;2023-07-31T03:36:31;100827.28;;;17.47;100.00
58955;BME280;45815;52.334;5.024;2023-07-31T03:38:57;100822.84;;;17.47;100.00
58955;BME280;45815;52.334;5.024;2023-07-31T03:41:22;100820.19;;;17.46;100.00
58955;BME280;45815;52.334;5.024;2023-07-31T03:43:50;100821.06;;;17.46;100.00
58955;BME280;45815;52.334;5.024;2023-07-31T03:46:21;100819.31;;;17.45;100.00
58955;BME280;45815;52.334;5.024;2023-07-31T03:48:48;100819.31;;;17.47;100.00
58955;BME280;45815;52.334;5.024;2023-07-31T03:51:13;100814.88;;;17.47;100.00
58955;BME280;45815;52.334;5.024;2023-07-31T03:53:39;100808.72;;;17.47;100.00
58955;BME280;45815;52.334;5.024;2023-07-31T03:56:04;100797.22;;;17.43;100.00
58955;BME280;45815;52.334;5.024;2023-07-31T03:58:29;100799.88;;;17.43;100.00
58955;BME280;45815;52.334;5.024;2023-07-31T04:00:55;100803.44;;;17.42;100.00
58955;BME280;45815;52.334;5.024;2023-07-31T04:03:20;100794.56;;;17.43;100.00
58955;BME280;45815;52.334;5.024;2023-07-31T04:05:46;100785.75;;;17.43;100.00
58955;BME280;45815;52.334;5.024;2023-07-31T04:08:11;100794.56;;;17.45;100.00
58955;BME280;45815;52.334;5.024;2023-07-31T04:10:37;100787.53;;;17.42;100.00
58955;BME280;45815;52.334;5.024;2023-07-31T04:13:02;100780.47;;;17.38;100.00
58955;BME280;45815;52.334;5.024;2023-07-31T04:15:27;100782.22;;;17.39;100.00
58955;BME280;45815;52.334;5.024;2023-07-31T04:17:53;100784.06;;;17.34;100.00
58955;BME280;45815;52.334;5.024;2023-07-31T04:20:18;100782.25;;;17.36;100.00
58955;BME280;45815;52.334;5.024;2023-07-31T04:22:44;100783.19;;;17.34;100.00
58955;BME280;45815;52.334;5.024;2023-07-31T04:25:09;100786.69;;;17.37;100.00
58955;BME280;45815;52.334;5.024;2023-07-31T04:27:35;100785.81;;;17.35;100.00
58955;BME280;45815;52.334;5.024;2023-07-31T04:30:00;100793.78;;;17.35;100.00
58955;BME280;45815;52.334;5.024;2023-07-31T04:32:25;100784.03;;;17.36;100.00
58955;BME280;45815;52.334;5.024;2023-07-31T04:34:51;100778.75;;;17.34;100.00
58955;BME280;45815;52.334;5.024;2023-07-31T04:37:16;100778.78;;;17.31;100.00
58955;BME280;45815;52.334;5.024;2023-07-31T04:39:42;100770.78;;;17.34;100.00
58955;BME280;45815;52.334;5.024;2023-07-31T04:42:07;100776.09;;;17.36;100.00
58955;BME280;45815;52.334;5.024;2023-07-31T04:44:33;100772.59;;;17.29;100.00
58955;BME280;45815;52.334;5.024;2023-07-31T04:46:58;100772.66;;;17.24;100.00
58955;BME280;45815;52.334;5.024;2023-07-31T04:49:24;100772.66;;;17.24;100.00
58955;BME280;45815;52.334;5.024;2023-07-31T04:51:49;100768.22;;;17.28;100.00
58955;BME280;45815;52.334;5.024;2023-07-31T04:54:14;100762.09;;;17.21;100.00
58955;BME280;45815;52.334;5.024;2023-07-31T04:56:40;100762.09;;;17.21;100.00
58955;BME280;45815;52.334;5.024;2023-07-31T04:59:06;100754.09;;;17.24;100.00
58955;BME280;45815;52.334;5.024;2023-07-31T05:01:32;100755.78;;;17.30;100.00
58955;BME280;45815;52.334;5.024;2023-07-31T05:03:57;100751.38;;;17.27;100.00
58955;BME280;45815;52.334;5.024;2023-07-31T05:06:23;100757.56;;;17.31;100.00
58955;BME280;45815;52.334;5.024;2023-07-31T05:08:48;100756.66;;;17.34;100.00
58955;BME280;45815;52.334;5.024;2023-07-31T05:11:14;100753.13;;;17.33;100.00
58955;BME280;45815;52.334;5.024;2023-07-31T05:13:39;100750.47;;;17.33;100.00
58955;BME280;45815;52.334;5.024;2023-07-31T05:16:04;100751.34;;;17.34;100.00
58955;BME280;45815;52.334;5.024;2023-07-31T05:18:30;100754.03;;;17.30;100.00
58955;BME280;45815;52.334;5.024;2023-07-31T05:20:55;100733.78;;;17.23;100.00
58955;BME280;45815;52.334;5.024;2023-07-31T05:23:21;100741.69;;;17.28;100.00
58955;BME280;45815;52.334;5.024;2023-07-31T05:25:46;100732.81;;;17.29;100.00
58955;BME280;45815;52.334;5.024;2023-07-31T05:28:12;100731.09;;;17.25;100.00
58955;BME280;45815;52.334;5.024;2023-07-31T05:30:37;100731.16;;;17.16;100.00
58955;BME280;45815;52.334;5.024;2023-07-31T05:33:03;100723.16;;;17.20;100.00
58955;BME280;45815;52.334;5.024;2023-07-31T05:35:28;100734.69;;;17.21;100.00
58955;BME280;45815;52.334;5.024;2023-07-31T05:37:54;100715.38;;;17.03;100.00
58955;BME280;45815;52.334;5.024;2023-07-31T05:40:19;100723.34;;;17.05;100.00
58955;BME280;45815;52.334;5.024;2023-07-31T05:42:45;100718.03;;;17.03;100.00
58955;BME280;45815;52.334;5.024;2023-07-31T05:45:10;100718.06;;;17.00;100.00
58955;BME280;45815;52.334;5.024;2023-07-31T05:47:36;100718.03;;;17.05;100.00
58955;BME280;45815;52.334;5.024;2023-07-31T05:50:01;100725.97;;;17.06;100.00
58955;BME280;45815;52.334;5.024;2023-07-31T05:52:27;100708.25;;;17.12;100.00
58955;BME280;45815;52.334;5.024;2023-07-31T05:54:54;100698.59;;;17.04;100.00
58955;BME280;45815;52.334;5.024;2023-07-31T05:57:19;100705.66;;;17.04;100.00
58955;BME280;45815;52.334;5.024;2023-07-31T05:59:45;100714.50;;;17.04;100.00
58955;BME280;45815;52.334;5.024;2023-07-31T06:02:11;100710.94;;;17.05;100.00
58955;BME280;45815;52.334;5.024;2023-07-31T06:04:36;100706.59;;;16.98;100.00
58955;BME280;45815;52.334;5.024;2023-07-31T06:07:01;100709.22;;;17.01;100.00
58955;BME280;45815;52.334;5.024;2023-07-31T06:09:28;100701.34;;;16.95;100.00
58955;BME280;45815;52.334;5.024;2023-07-31T06:11:53;100709.25;;;16.97;100.00
58955;BME280;45815;52.334;5.024;2023-07-31T06:14:19;100701.38;;;16.91;100.00
58955;BME280;45815;52.334;5.024;2023-07-31T06:16:44;100691.72;;;16.83;100.00
58955;BME280;45815;52.334;5.024;2023-07-31T06:19:10;100702.28;;;16.86;100.00
58955;BME280;45815;52.334;5.024;2023-07-31T06:21:36;100697.81;;;16.92;100.00
58955;BME280;45815;52.334;5.024;2023-07-31T06:24:05;100696.88;;;16.97;100.00
58955;BME280;45815;52.334;5.024;2023-07-31T06:26:31;100691.59;;;16.94;100.00
58955;BME280;45815;52.334;5.024;2023-07-31T06:28:56;100694.22;;;16.99;100.00
58955;BME280;45815;52.334;5.024;2023-07-31T06:31:21;100696.03;;;16.95;100.00
58955;BME280;45815;52.334;5.024;2023-07-31T06:33:49;100699.59;;;16.91;100.00
58955;BME280;45815;52.334;5.024;2023-07-31T06:36:14;100689.94;;;16.84;100.00
58955;BME280;45815;52.334;5.024;2023-07-31T06:38:40;100685.53;;;16.83;100.00
58955;BME280;45815;52.334;5.024;2023-07-31T06:41:05;100682.00;;;16.84;100.00
58955;BME280;45815;52.334;5.024;2023-07-31T06:43:31;100680.19;;;16.89;100.00
58955;BME280;45815;52.334;5.024;2023-07-31T06:45:56;100679.25;;;16.92;100.00
58955;BME280;45815;52.334;5.024;2023-07-31T06:48:22;100674.88;;;16.89;100.00
58955;BME280;45815;52.334;5.024;2023-07-31T06:50:47;100674.81;;;16.95;100.00
58955;BME280;45815;52.334;5.024;2023-07-31T06:53:12;100675.69;;;16.96;100.00
58955;BME280;45815;52.334;5.024;2023-07-31T06:55:38;100674.78;;;16.98;100.00
58955;BME280;45815;52.334;5.024;2023-07-31T06:58:03;100671.19;;;17.04;100.00
58955;BME280;45815;52.334;5.024;2023-07-31T07:00:29;100636.06;;;16.82;100.00
58955;BME280;45815;52.334;5.024;2023-07-31T07:02:54;100666.69;;;17.09;100.00
58955;BME280;45815;52.334;5.024;2023-07-31T07:05:20;100672.81;;;17.16;100.00
58955;BME280;45815;52.334;5.024;2023-07-31T07:07:45;100665.81;;;17.12;100.00
58955;BME280;45815;52.334;5.024;2023-07-31T07:10:11;100674.59;;;17.17;100.00
58955;BME280;45815;52.334;5.024;2023-07-31T07:12:36;100668.38;;;17.19;100.00
58955;BME280;45815;52.334;5.024;2023-07-31T07:15:02;100672.72;;;17.25;100.00
58955;BME280;45815;52.334;5.024;2023-07-31T07:17:29;100670.06;;;17.26;100.00
58955;BME280;45815;52.334;5.024;2023-07-31T07:19:57;100666.53;;;17.26;100.00
58955;BME280;45815;52.334;5.024;2023-07-31T07:22:23;100669.97;;;17.34;100.00
58955;BME280;45815;52.334;5.024;2023-07-31T07:24:49;100678.78;;;17.35;100.00
58955;BME280;45815;52.334;5.024;2023-07-31T07:27:14;100674.34;;;17.38;100.00
58955;BME280;45815;52.334;5.024;2023-07-31T07:29:40;100676.09;;;17.39;100.00
58955;BME280;45815;52.334;5.024;2023-07-31T07:32:07;100666.44;;;17.32;100.00
58955;BME280;45815;52.334;5.024;2023-07-31T07:34:34;100668.13;;;17.39;100.00
58955;BME280;45815;52.334;5.024;2023-07-31T07:36:59;100672.50;;;17.43;100.00
58955;BME280;45815;52.334;5.024;2023-07-31T07:39:24;100682.22;;;17.46;100.00
58955;BME280;45815;52.334;5.024;2023-07-31T07:41:50;100677.78;;;17.46;100.00
58955;BME280;45815;52.334;5.024;2023-07-31T07:44:15;100671.63;;;17.44;100.00
58955;BME280;45815;52.334;5.024;2023-07-31T07:46:41;100671.59;;;17.47;100.00
58955;BME280;45815;52.334;5.024;2023-07-31T07:49:06;100672.41;;;17.52;100.00
58955;BME280;45815;52.334;5.024;2023-07-31T07:51:32;100675.00;;;17.57;100.00
58955;BME280;45815;52.334;5.024;2023-07-31T07:53:58;100663.56;;;17.54;100.00
58955;BME280;45815;52.334;5.024;2023-07-31T07:56:25;100670.56;;;17.61;100.00
58955;BME280;45815;52.334;5.024;2023-07-31T07:58:51;100660.00;;;17.55;100.00
58955;BME280;45815;52.334;5.024;2023-07-31T08:01:16;100661.63;;;17.65;100.00
58955;BME280;45815;52.334;5.024;2023-07-31T08:03:42;100659.03;;;17.60;100.00
58955;BME280;45815;52.334;5.024;2023-07-31T08:06:08;100657.13;;;17.71;100.00
58955;BME280;45815;52.334;5.024;2023-07-31T08:08:37;100652.69;;;17.72;100.00
58955;BME280;45815;52.334;5.024;2023-07-31T08:11:03;100660.56;;;17.78;100.00
58955;BME280;45815;52.334;5.024;2023-07-31T08:13:28;100646.34;;;17.84;100.00
58955;BME280;45815;52.334;5.024;2023-07-31T08:15:54;100650.75;;;17.88;100.00
58955;BME280;45815;52.334;5.024;2023-07-31T08:18:20;100654.25;;;17.91;100.00
58955;BME280;45815;52.334;5.024;2023-07-31T08:20:46;100653.38;;;17.88;100.00
58955;BME280;45815;52.334;5.024;2023-07-31T08:23:12;100642.81;;;17.85;100.00
58955;BME280;45815;52.334;5.024;2023-07-31T08:25:37;100646.22;;;17.93;100.00
58955;BME280;45815;52.334;5.024;2023-07-31T08:28:04;100643.56;;;17.95;100.00
58955;BME280;45815;52.334;5.024;2023-07-31T08:30:29;100643.50;;;17.98;100.00
58955;BME280;45815;52.334;5.024;2023-07-31T08:32:55;100638.13;;;18.05;100.00
58955;BME280;45815;52.334;5.024;2023-07-31T08:35:20;100622.13;;;18.07;100.00
58955;BME280;45815;52.334;5.024;2023-07-31T08:37:46;100637.91;;;18.19;100.00
58955;BME280;45815;52.334;5.024;2023-07-31T08:40:11;100628.97;;;18.23;100.00
58955;BME280;45815;52.334;5.024;2023-07-31T08:42:49;100643.03;;;18.28;100.00
58955;BME280;45815;52.334;5.024;2023-07-31T08:45:18;100642.91;;;18.38;100.00
58955;BME280;45815;52.334;5.024;2023-07-31T08:47:48;100640.16;;;18.42;100.00
58955;BME280;45815;52.334;5.024;2023-07-31T08:50:15;100636.56;;;18.46;100.00
58955;BME280;45815;52.334;5.024;2023-07-31T08:52:40;100640.94;;;18.50;100.00
58955;BME280;45815;52.334;5.024;2023-07-31T08:55:07;100643.56;;;18.52;100.00
58955;BME280;45815;52.334;5.024;2023-07-31T08:57:38;100637.28;;;18.56;100.00
58955;BME280;45815;52.334;5.024;2023-07-31T09:00:05;100639.06;;;18.54;100.00
58955;BME280;45815;52.334;5.024;2023-07-31T09:02:57;100631.88;;;18.62;100.00
58955;BME280;45815;52.334;5.024;2023-07-31T09:05:21;100628.41;;;18.57;100.00
58955;BME280;45815;52.334;5.024;2023-07-31T09:07:49;100633.56;;;18.66;100.00
58955;BME280;45815;52.334;5.024;2023-07-31T09:10:15;100631.78;;;18.68;100.00
58955;BME280;45815;52.334;5.024;2023-07-31T09:12:41;100638.75;;;18.72;100.00
58955;BME280;45815;52.334;5.024;2023-07-31T09:15:07;100626.31;;;18.74;100.00
58955;BME280;45815;52.334;5.024;2023-07-31T09:17:35;100629.81;;;18.80;100.00
58955;BME280;45815;52.334;5.024;2023-07-31T09:20:19;100628.06;;;18.79;100.00
58955;BME280;45815;52.334;5.024;2023-07-31T09:22:45;100623.63;;;18.79;100.00
58955;BME280;45815;52.334;5.024;2023-07-31T09:25:21;100622.75;;;18.79;100.00
58955;BME280;45815;52.334;5.024;2023-07-31T09:30:12;100616.41;;;18.86;100.00
58955;BME280;45815;52.334;5.024;2023-07-31T09:32:38;100610.16;;;18.87;100.00
58955;BME280;45815;52.334;5.024;2023-07-31T09:37:53;100613.56;;;18.96;100.00
58955;BME280;45815;52.334;5.024;2023-07-31T09:40:32;100617.94;;;18.97;100.00
58955;BME280;45815;52.334;5.024;2023-07-31T09:42:59;100614.34;;;19.02;100.00
58955;BME280;45815;52.334;5.024;2023-07-31T09:45:26;100618.72;;;19.04;100.00
58955;BME280;45815;52.334;5.024;2023-07-31T09:47:51;100621.28;;;19.09;100.00
58955;BME280;45815;52.334;5.024;2023-07-31T09:50:17;100615.09;;;19.08;100.00
58955;BME280;45815;52.334;5.024;2023-07-31T09:52:43;100607.94;;;19.10;100.00
58955;BME280;45815;52.334;5.024;2023-07-31T09:55:09;100601.03;;;19.02;100.00
58955;BME280;45815;52.334;5.024;2023-07-31T09:57:41;100604.50;;;19.05;100.00
58955;BME280;45815;52.334;5.024;2023-07-31T10:00:11;100612.47;;;19.05;100.00
58955;BME280;45815;52.334;5.024;2023-07-31T10:02:37;100608.06;;;19.04;100.00
58955;BME280;45815;52.334;5.024;2023-07-31T10:05:04;100604.38;;;19.11;100.00
58955;BME280;45815;52.334;5.024;2023-07-31T10:07:31;100604.06;;;19.27;100.00
58955;BME280;45815;52.334;5.024;2023-07-31T10:09:59;100600.31;;;19.37;100.00
58955;BME280;45815;52.334;5.024;2023-07-31T10:12:26;100602.72;;;19.49;100.00
58955;BME280;45815;52.334;5.024;2023-07-31T10:14:55;100590.25;;;19.50;100.00
58955;BME280;45815;52.334;5.024;2023-07-31T10:17:22;100604.19;;;19.63;100.00
58955;BME280;45815;52.334;5.024;2023-07-31T10:19:49;100596.97;;;19.68;100.00
58955;BME280;45815;52.334;5.024;2023-07-31T10:22:15;100601.31;;;19.73;100.00
58955;BME280;45815;52.334;5.024;2023-07-31T10:24:48;100596.69;;;19.81;100.00
58955;BME280;45815;52.334;5.024;2023-07-31T10:27:14;100573.41;;;19.90;100.00
58955;BME280;45815;52.334;5.024;2023-07-31T10:29:41;100589.03;;;20.05;100.00
58955;BME280;45815;52.334;5.024;2023-07-31T10:32:09;100579.34;;;20.02;100.00
58955;BME280;45815;52.334;5.024;2023-07-31T10:34:36;100580.22;;;20.01;100.00
58955;BME280;45815;52.334;5.024;2023-07-31T10:37:23;100578.63;;;19.94;100.00
58955;BME280;45815;52.334;5.024;2023-07-31T10:39:56;100575.28;;;19.86;100.00
58955;BME280;45815;52.334;5.024;2023-07-31T10:42:34;100573.69;;;19.79;100.00
58955;BME280;45815;52.334;5.024;2023-07-31T10:45:05;100591.47;;;19.77;100.00
58955;BME280;45815;52.334;5.024;2023-07-31T10:47:31;100596.22;;;19.63;100.00
58955;BME280;45815;52.334;5.024;2023-07-31T10:50:22;100583.00;;;19.58;100.00
58955;BME280;45815;52.334;5.024;2023-07-31T10:52:50;100585.38;;;19.72;100.00
58955;BME280;45815;52.334;5.024;2023-07-31T10:57:49;100570.84;;;19.85;100.00
58955;BME280;45815;52.334;5.024;2023-07-31T11:00:28;100570.72;;;19.91;100.00
58955;BME280;45815;52.334;5.024;2023-07-31T11:03:02;100563.59;;;19.92;100.00
58955;BME280;45815;52.334;5.024;2023-07-31T11:05:50;100561.13;;;19.84;100.00
58955;BME280;45815;52.334;5.024;2023-07-31T11:08:23;100578.34;;;20.07;100.00
58955;BME280;45815;52.334;5.024;2023-07-31T11:13:30;100568.28;;;20.18;100.00
58955;BME280;45815;52.334;5.024;2023-07-31T11:15:56;100571.78;;;20.20;100.00
58955;BME280;45815;52.334;5.024;2023-07-31T11:18:22;100570.91;;;20.21;100.00
58955;BME280;45815;52.334;5.024;2023-07-31T11:20:47;100566.63;;;20.14;100.00
58955;BME280;45815;52.334;5.024;2023-07-31T11:23:15;100565.63;;;20.18;100.00
58955;BME280;45815;52.334;5.024;2023-07-31T11:25:41;100571.66;;;20.26;100.00
58955;BME280;45815;52.334;5.024;2023-07-31T11:28:11;100549.28;;;20.32;100.00
58955;BME280;45815;52.334;5.024;2023-07-31T11:30:38;100532.50;;;20.28;100.00
58955;BME280;45815;52.334;5.024;2023-07-31T11:33:05;100541.25;;;20.33;100.00
58955;BME280;45815;52.334;5.024;2023-07-31T11:35:36;100541.25;;;20.33;100.00
58955;BME280;45815;52.334;5.024;2023-07-31T11:38:07;100544.75;;;20.35;100.00
58955;BME280;45815;52.334;5.024;2023-07-31T11:40:41;100546.06;;;20.19;100.00
58955;BME280;45815;52.334;5.024;2023-07-31T11:43:07;100541.63;;;20.18;100.00
58955;BME280;45815;52.334;5.024;2023-07-31T11:45:33;100541.63;;;20.18;100.00
58955;BME280;45815;52.334;5.024;2023-07-31T11:48:00;100526.38;;;20.24;100.00
58955;BME280;45815;52.334;5.024;2023-07-31T11:50:26;100533.38;;;20.29;100.00
58955;BME280;45815;52.334;5.024;2023-07-31T11:53:06;100532.75;;;20.19;100.00
58955;BME280;45815;52.334;5.024;2023-07-31T11:55:33;100540.31;;;20.36;100.00
58955;BME280;45815;52.334;5.024;2023-07-31T11:57:59;100545.41;;;20.43;100.00
58955;BME280;45815;52.334;5.024;2023-07-31T12:00:26;100540.88;;;20.49;100.00
58955;BME280;45815;52.334;5.024;2023-07-31T12:02:52;100544.34;;;20.51;100.00
58955;BME280;45815;52.334;5.024;2023-07-31T12:05:18;100552.34;;;20.51;100.00
58955;BME280;45815;52.334;5.024;2023-07-31T12:07:51;100544.66;;;20.38;100.00
58955;BME280;45815;52.334;5.024;2023-07-31T12:13:07;100549.09;;;20.39;100.00
58955;BME280;45815;52.334;5.024;2023-07-31T12:15:35;100553.47;;;20.42;100.00
58955;BME280;45815;52.334;5.024;2023-07-31T12:18:06;100543.59;;;20.45;100.00
58955;BME280;45815;52.334;5.024;2023-07-31T12:20:32;100543.53;;;20.49;100.00
58955;BME280;45815;52.334;5.024;2023-07-31T12:22:57;100531.94;;;20.50;100.00
58955;BME280;45815;52.334;5.024;2023-07-31T12:25:29;100530.44;;;20.39;100.00
58955;BME280;45815;52.334;5.024;2023-07-31T12:27:54;100521.50;;;20.42;100.00
58955;BME280;45815;52.334;5.024;2023-07-31T12:30:33;100518.72;;;20.45;100.00
58955;BME280;45815;52.334;5.024;2023-07-31T12:33:15;100514.00;;;20.55;100.00
58955;BME280;45815;52.334;5.024;2023-07-31T12:35:43;100508.38;;;20.67;100.00
58955;BME280;45815;52.334;5.024;2023-07-31T12:38:09;100507.38;;;20.71;100.00
58955;BME280;45815;52.334;5.024;2023-07-31T12:40:37;100521.53;;;20.73;100.00
58955;BME280;45815;52.334;5.024;2023-07-31T12:43:02;100509.88;;;20.77;100.00
58955;BME280;45815;52.334;5.024;2023-07-31T12:45:29;100497.25;;;20.84;100.00
58955;BME280;45815;52.334;5.024;2023-07-31T12:47:55;100501.78;;;20.80;100.00
58955;BME280;45815;52.334;5.024;2023-07-31T12:50:21;100501.69;;;20.83;100.00
58955;BME280;45815;52.334;5.024;2023-07-31T12:52:46;100493.66;;;20.85;100.00
58955;BME280;45815;52.334;5.024;2023-07-31T12:55:12;100490.69;;;20.96;100.00
58955;BME280;45815;52.334;5.024;2023-07-31T12:57:37;100478.09;;;20.99;100.00
58955;BME280;45815;52.334;5.024;2023-07-31T13:00:03;100487.72;;;21.05;100.00